Time;durP1;ratioP1;P1;durP2;ratioP2;P2;SDS_P1;SDS_P2;PMS_P1;PMS_P2;Temp;Humidity;BMP_temperature;BMP_pressure;BME280_temperature;BME280_humidity;BME280_pressure;Samples;Min_cycle;Max_cycle;Signal;HPM_P1;HPM_P2
2023/12/11 00:01:17;;;;;;;30.60;4.70;;;10.50;99.90;;;;;;5051900;28;20216;-59
2023/12/11 00:03:45;;;;;;;35.30;6.70;;;10.50;99.90;;;;;;5037247;28;20224;-59
2023/12/11 00:06:15;;;;;;;40.57;6.23;;;10.50;99.90;;;;;;5038886;28;20237;-59
2023/12/11 00:08:43;;;;;;;28.53;5.67;;;10.60;99.90;;;;;;5040249;28;20217;-58
2023/12/11 00:11:12;;;;;;;38.33;6.30;;;10.60;99.90;;;;;;5048617;28;20274;-59
2023/12/11 00:13:41;;;;;;;36.03;5.60;;;10.60;99.90;;;;;;5051741;28;20191;-58
2023/12/11 00:16:09;;;;;;;37.97;6.07;;;10.70;99.90;;;;;;5033968;28;20232;-58
2023/12/11 00:18:37;;;;;;;39.33;6.20;;;10.80;99.90;;;;;;5024087;28;20220;-59
2023/12/11 00:21:06;;;;;;;36.00;6.03;;;10.80;99.90;;;;;;5026604;28;20320;-59
2023/12/11 00:23:36;;;;;;;38.90;5.43;;;10.80;99.90;;;;;;5025251;28;20232;-59
2023/12/11 00:26:05;;;;;;;37.03;5.23;;;10.80;99.90;;;;;;5033091;28;20671;-58
2023/12/11 00:28:33;;;;;;;31.63;4.87;;;10.80;99.90;;;;;;5026975;28;20297;-58
2023/12/11 00:31:06;;;;;;;29.40;5.40;;;10.80;99.90;;;;;;5031714;28;20221;-59
2023/12/11 00:33:36;;;;;;;35.73;4.87;;;10.80;99.90;;;;;;5032166;28;20694;-58
2023/12/11 00:36:06;;;;;;;35.30;4.80;;;10.80;99.90;;;;;;5031123;28;20241;-59
2023/12/11 00:38:34;;;;;;;31.07;5.23;;;10.90;99.90;;;;;;5032297;28;20229;-58
2023/12/11 00:41:04;;;;;;;41.93;5.40;;;10.90;99.90;;;;;;5035198;28;20209;-59
2023/12/11 00:43:32;;;;;;;34.00;5.83;;;10.90;99.90;;;;;;5034007;28;20210;-58
2023/12/11 00:46:13;;;;;;;36.07;5.17;;;10.90;99.90;;;;;;5032252;28;20224;-59
2023/12/11 00:48:42;;;;;;;43.07;6.43;;;10.90;99.90;;;;;;5027714;28;20217;-59
2023/12/11 00:51:16;;;;;;;31.63;5.73;;;10.80;99.90;;;;;;5038466;28;20228;-59
2023/12/11 00:53:44;;;;;;;33.87;6.07;;;10.80;99.90;;;;;;5053311;28;20231;-58
2023/12/11 00:56:14;;;;;;;33.00;5.13;;;10.80;99.90;;;;;;5051727;28;20233;-58
2023/12/11 00:58:42;;;;;;;39.77;5.47;;;10.80;99.90;;;;;;5029494;28;20547;-58
2023/12/11 01:01:11;;;;;;;32.93;5.57;;;10.90;99.90;;;;;;5031580;28;20230;-59
2023/12/11 01:03:39;;;;;;;34.47;4.87;;;10.90;99.90;;;;;;5035899;28;20225;-58
2023/12/11 01:06:08;;;;;;;40.67;5.57;;;11.00;99.90;;;;;;5030283;28;20686;-59
2023/12/11 01:08:38;;;;;;;36.33;5.37;;;11.00;99.90;;;;;;5037397;28;20221;-59
2023/12/11 01:11:08;;;;;;;28.10;4.60;;;11.00;99.90;;;;;;5032830;28;20217;-58
2023/12/11 01:13:38;;;;;;;27.47;5.60;;;11.10;99.90;;;;;;5033325;28;20189;-59
2023/12/11 01:16:07;;;;;;;40.23;5.87;;;11.00;99.90;;;;;;5028359;28;20576;-58
2023/12/11 01:18:36;;;;;;;39.43;5.97;;;11.00;99.90;;;;;;5030936;28;20217;-59
2023/12/11 01:21:05;;;;;;;36.47;5.00;;;11.00;99.90;;;;;;5035047;28;20728;-58
2023/12/11 01:23:33;;;;;;;32.90;4.90;;;11.00;99.90;;;;;;5021361;28;20222;-58
2023/12/11 01:26:01;;;;;;;28.67;4.60;;;10.90;99.90;;;;;;5035100;28;20186;-58
2023/12/11 01:28:30;;;;;;;27.47;5.40;;;11.00;99.90;;;;;;5034946;28;20197;-58
2023/12/11 01:30:59;;;;;;;30.30;4.90;;;11.00;99.90;;;;;;5032616;28;20263;-58
2023/12/11 01:33:28;;;;;;;31.27;5.03;;;11.10;99.90;;;;;;5031307;28;20300;-59
2023/12/11 01:35:56;;;;;;;30.43;5.17;;;11.10;99.90;;;;;;5034717;28;20232;-59
2023/12/11 01:38:25;;;;;;;35.07;5.37;;;11.10;99.90;;;;;;5033003;28;20230;-58
2023/12/11 01:40:53;;;;;;;33.20;5.17;;;11.00;99.90;;;;;;5042067;28;20537;-58
2023/12/11 01:43:21;;;;;;;33.43;4.67;;;11.00;99.90;;;;;;5035920;28;20203;-59
2023/12/11 01:46:01;;;;;;;38.67;5.40;;;10.90;99.90;;;;;;5033629;28;20720;-59
2023/12/11 01:48:30;;;;;;;35.93;5.00;;;10.90;99.90;;;;;;5033681;28;20231;-58
2023/12/11 01:50:58;;;;;;;35.67;6.13;;;10.90;99.90;;;;;;5030207;28;20224;-59
2023/12/11 01:53:28;;;;;;;40.77;6.20;;;10.90;99.90;;;;;;5034828;28;20243;-59
2023/12/11 01:55:56;;;;;;;34.77;5.10;;;11.00;99.90;;;;;;5037177;28;20208;-59
2023/12/11 01:58:25;;;;;;;31.67;4.90;;;11.00;99.90;;;;;;5054763;28;20189;-59
2023/12/11 02:00:53;;;;;;;32.20;5.10;;;11.10;99.90;;;;;;5040122;28;20374;-58
2023/12/11 02:03:23;;;;;;;27.30;5.13;;;11.00;99.90;;;;;;5040670;28;20216;-59
2023/12/11 02:05:53;;;;;;;35.17;5.53;;;11.00;99.90;;;;;;5033087;28;20221;-59
2023/12/11 02:08:21;;;;;;;34.80;4.97;;;11.10;99.90;;;;;;5039210;28;20781;-58
2023/12/11 02:10:50;;;;;;;34.17;4.53;;;11.10;99.90;;;;;;5031100;28;20198;-59
2023/12/11 02:13:18;;;;;;;39.23;5.57;;;11.10;99.90;;;;;;5032171;28;20758;-59
2023/12/11 02:15:47;;;;;;;33.50;5.27;;;11.00;99.90;;;;;;5031292;28;20249;-59
2023/12/11 02:18:16;;;;;;;31.67;4.83;;;10.80;99.90;;;;;;5033870;28;20231;-59
2023/12/11 02:20:46;;;;;;;33.97;4.90;;;10.70;99.90;;;;;;5033061;28;20231;-59
2023/12/11 02:23:21;;;;;;;32.93;5.17;;;10.60;99.90;;;;;;5035671;28;20257;-59
2023/12/11 02:25:59;;;;;;;32.10;5.27;;;10.70;99.90;;;;;;5031093;28;20208;-60
2023/12/11 02:28:29;;;;;;;30.80;4.97;;;10.70;99.90;;;;;;5033515;28;20220;-59
2023/12/11 02:30:57;;;;;;;30.97;4.43;;;10.70;99.90;;;;;;5032372;28;20221;-60
2023/12/11 02:33:25;;;;;;;27.97;4.67;;;10.80;99.90;;;;;;5037273;28;20225;-59
2023/12/11 02:35:54;;;;;;;30.53;5.10;;;10.80;99.90;;;;;;5029966;28;20593;-58
2023/12/11 02:38:22;;;;;;;33.30;5.70;;;10.90;99.90;;;;;;5034195;28;20683;-59
2023/12/11 02:40:50;;;;;;;34.30;5.07;;;10.90;99.90;;;;;;5034479;28;20197;-59
2023/12/11 02:43:18;;;;;;;28.00;4.53;;;11.00;99.90;;;;;;5049313;28;20209;-59
2023/12/11 02:45:48;;;;;;;29.03;4.97;;;11.00;99.90;;;;;;5051388;28;20220;-60
2023/12/11 02:48:16;;;;;;;23.80;4.70;;;11.00;99.90;;;;;;5054541;28;20586;-59
2023/12/11 02:50:45;;;;;;;27.10;4.77;;;10.90;99.90;;;;;;5051258;28;20256;-59
2023/12/11 02:53:13;;;;;;;28.80;4.77;;;10.90;99.90;;;;;;5052478;28;20583;-59
2023/12/11 02:55:42;;;;;;;24.83;5.03;;;11.00;99.90;;;;;;5054085;28;20203;-59
2023/12/11 02:58:10;;;;;;;34.63;4.73;;;11.10;99.90;;;;;;5058240;28;20228;-59
2023/12/11 03:00:39;;;;;;;26.60;5.00;;;11.10;99.90;;;;;;5050370;28;20765;-59
2023/12/11 03:03:10;;;;;;;36.73;5.33;;;11.00;99.90;;;;;;5052192;28;20221;-59
2023/12/11 03:05:38;;;;;;;27.27;4.70;;;11.00;99.90;;;;;;5051401;28;20690;-59
2023/12/11 03:08:07;;;;;;;33.83;4.67;;;10.90;99.90;;;;;;5051818;28;20196;-59
2023/12/11 03:10:35;;;;;;;23.10;4.37;;;10.80;99.90;;;;;;5053916;28;20198;-59
2023/12/11 03:13:03;;;;;;;33.47;4.73;;;10.80;99.90;;;;;;5047144;28;20234;-59
2023/12/11 03:15:32;;;;;;;24.67;4.60;;;10.70;99.90;;;;;;5045973;28;20233;-59
2023/12/11 03:18:01;;;;;;;28.77;4.30;;;10.70;99.90;;;;;;5050555;28;20232;-59
2023/12/11 03:20:31;;;;;;;31.73;4.40;;;10.70;99.90;;;;;;5056696;28;20242;-59
2023/12/11 03:22:59;;;;;;;35.40;4.53;;;10.60;99.90;;;;;;5054982;28;20319;-58
2023/12/11 03:25:27;;;;;;;26.10;4.73;;;10.60;99.90;;;;;;5055846;28;20586;-59
2023/12/11 03:27:55;;;;;;;30.43;4.87;;;10.60;99.90;;;;;;5049799;28;20216;-59
2023/12/11 03:30:23;;;;;;;30.47;5.10;;;10.60;99.90;;;;;;5046670;28;20225;-59
2023/12/11 03:32:51;;;;;;;25.93;4.83;;;10.60;99.90;;;;;;5055033;28;20220;-59
2023/12/11 03:35:19;;;;;;;33.43;4.53;;;10.60;99.90;;;;;;5052169;28;20590;-59
2023/12/11 03:37:49;;;;;;;43.67;5.63;;;10.50;99.90;;;;;;5053371;28;20212;-59
2023/12/11 03:40:17;;;;;;;27.10;4.60;;;10.40;99.90;;;;;;5058839;28;20999;-59
2023/12/11 03:42:46;;;;;;;31.60;5.30;;;10.40;99.90;;;;;;5048987;28;20303;-59
2023/12/11 03:45:14;;;;;;;32.47;4.93;;;10.40;99.90;;;;;;5051843;28;20216;-60
2023/12/11 03:47:43;;;;;;;52.93;6.13;;;10.40;99.90;;;;;;5052209;28;20224;-59
2023/12/11 03:50:11;;;;;;;29.67;4.63;;;10.50;99.90;;;;;;5048958;28;20187;-59
2023/12/11 03:52:39;;;;;;;37.00;5.20;;;10.50;99.90;;;;;;5051460;28;20188;-59
2023/12/11 03:55:09;;;;;;;29.73;4.73;;;10.50;99.90;;;;;;5054854;28;20587;-59
2023/12/11 03:57:37;;;;;;;36.67;5.47;;;10.50;99.90;;;;;;5047344;28;20220;-59
2023/12/11 04:00:08;;;;;;;23.17;4.17;;;10.60;99.90;;;;;;5047216;28;20240;-59
2023/12/11 04:02:36;;;;;;;33.70;5.40;;;10.70;99.90;;;;;;5053898;28;20247;-59
2023/12/11 04:05:05;;;;;;;31.43;5.03;;;10.70;99.90;;;;;;5053747;28;20327;-58
2023/12/11 04:07:33;;;;;;;35.13;5.20;;;10.70;99.90;;;;;;5053611;28;20195;-59
2023/12/11 04:10:03;;;;;;;29.10;5.13;;;10.70;99.90;;;;;;5053741;28;20220;-59
2023/12/11 04:12:33;;;;;;;41.00;5.33;;;10.80;99.90;;;;;;5053265;28;20228;-58
2023/12/11 04:15:01;;;;;;;36.10;5.30;;;10.90;99.90;;;;;;5052442;28;20220;-59
2023/12/11 04:17:29;;;;;;;33.90;4.97;;;11.00;99.90;;;;;;5048330;28;20242;-59
2023/12/11 04:19:58;;;;;;;31.37;4.37;;;11.00;99.90;;;;;;5057704;28;20246;-58
2023/12/11 04:22:27;;;;;;;24.43;4.63;;;11.00;99.90;;;;;;5056459;28;20643;-59
2023/12/11 04:24:56;;;;;;;37.37;5.43;;;11.00;99.90;;;;;;5058322;28;20227;-59
2023/12/11 04:27:24;;;;;;;35.50;4.70;;;11.00;99.90;;;;;;5054440;28;20221;-59
2023/12/11 04:29:55;;;;;;;27.80;4.90;;;11.00;99.90;;;;;;5049509;28;20489;-59
2023/12/11 04:32:23;;;;;;;30.43;5.13;;;11.10;99.90;;;;;;5054809;28;20216;-59
2023/12/11 04:34:54;;;;;;;32.10;5.10;;;11.10;99.90;;;;;;5056224;28;20184;-59
2023/12/11 04:37:22;;;;;;;27.33;4.97;;;11.00;99.90;;;;;;5029930;28;20244;-59
2023/12/11 04:39:50;;;;;;;22.53;4.50;;;11.00;99.90;;;;;;5031963;28;20223;-59
2023/12/11 04:42:19;;;;;;;25.43;4.90;;;11.00;99.90;;;;;;5031180;28;20276;-59
2023/12/11 04:44:47;;;;;;;34.57;4.90;;;11.00;99.90;;;;;;5032719;28;20225;-59
2023/12/11 04:47:17;;;;;;;24.03;4.53;;;11.10;99.90;;;;;;5032928;28;20223;-59
2023/12/11 04:49:48;;;;;;;26.30;3.97;;;11.10;99.90;;;;;;5039760;28;20209;-59
2023/12/11 04:52:17;;;;;;;35.23;4.60;;;11.10;99.90;;;;;;5037482;28;20271;-59
2023/12/11 04:54:45;;;;;;;33.10;4.83;;;11.10;99.90;;;;;;5033239;28;20225;-59
2023/12/11 04:57:14;;;;;;;32.03;5.10;;;11.10;99.90;;;;;;5039019;28;20307;-59
2023/12/11 04:59:42;;;;;;;21.13;4.67;;;11.00;99.90;;;;;;5036383;28;20217;-59
2023/12/11 05:02:11;;;;;;;34.10;5.17;;;11.00;99.90;;;;;;5029416;28;20228;-59
2023/12/11 05:04:41;;;;;;;32.13;5.13;;;10.90;99.90;;;;;;5033210;28;20209;-59
2023/12/11 05:07:09;;;;;;;23.47;4.20;;;10.90;99.90;;;;;;5032997;28;20739;-59
2023/12/11 05:09:38;;;;;;;31.37;5.00;;;10.90;99.90;;;;;;5034577;28;20217;-59
2023/12/11 05:12:07;;;;;;;21.63;4.43;;;10.80;99.90;;;;;;5038016;28;20216;-59
2023/12/11 05:14:35;;;;;;;27.23;5.07;;;10.80;99.90;;;;;;5037700;28;20221;-59
2023/12/11 05:17:04;;;;;;;27.20;4.70;;;10.80;99.90;;;;;;5030985;28;20618;-59
2023/12/11 05:19:32;;;;;;;25.53;4.63;;;10.80;99.90;;;;;;5040126;28;20212;-59
2023/12/11 05:22:02;;;;;;;27.67;5.13;;;10.80;99.90;;;;;;5036338;28;20747;-59
2023/12/11 05:24:31;;;;;;;22.60;4.13;;;10.70;99.90;;;;;;5031956;28;20671;-59
2023/12/11 05:26:59;;;;;;;34.10;4.43;;;10.70;99.90;;;;;;5037417;28;20235;-58
2023/12/11 05:29:29;;;;;;;31.33;4.67;;;10.70;99.90;;;;;;5068295;28;20313;-59
2023/12/11 05:31:58;;;;;;;23.43;4.20;;;10.70;99.90;;;;;;5034826;28;20277;-59
2023/12/11 05:34:26;;;;;;;28.57;4.30;;;10.70;99.90;;;;;;5032041;28;20200;-60
2023/12/11 05:36:54;;;;;;;20.50;4.17;;;10.80;99.90;;;;;;5035287;28;20715;-58
2023/12/11 05:39:24;;;;;;;23.40;4.83;;;10.70;99.90;;;;;;5039611;28;20220;-59
2023/12/11 05:41:52;;;;;;;28.60;4.70;;;10.60;99.90;;;;;;5033457;28;20233;-59
2023/12/11 05:44:20;;;;;;;25.63;4.60;;;10.60;99.90;;;;;;5038636;28;20221;-59
2023/12/11 05:46:50;;;;;;;33.13;5.60;;;10.70;99.90;;;;;;5031110;28;20198;-59
2023/12/11 05:49:18;;;;;;;28.53;4.67;;;10.60;99.90;;;;;;5021060;28;20209;-60
2023/12/11 05:51:46;;;;;;;28.17;4.37;;;10.60;99.90;;;;;;5035291;28;20225;-59
2023/12/11 05:54:15;;;;;;;33.40;5.53;;;10.50;99.90;;;;;;5033338;28;20312;-59
2023/12/11 05:56:44;;;;;;;32.43;5.33;;;10.50;99.90;;;;;;5033575;28;20295;-58
2023/12/11 05:59:13;;;;;;;20.23;4.20;;;10.60;99.90;;;;;;5035185;28;20345;-58
2023/12/11 06:01:44;;;;;;;23.47;3.97;;;10.60;99.90;;;;;;5034130;28;20200;-59
2023/12/11 06:04:12;;;;;;;23.00;4.57;;;10.70;99.90;;;;;;5034486;28;20232;-59
2023/12/11 06:06:40;;;;;;;21.30;4.13;;;10.70;99.90;;;;;;5023778;28;20221;-58
2023/12/11 06:09:09;;;;;;;30.83;5.40;;;10.70;99.90;;;;;;5045960;28;20220;-59
2023/12/11 06:11:37;;;;;;;31.07;4.43;;;10.70;99.90;;;;;;5037470;28;20214;-58
2023/12/11 06:14:07;;;;;;;19.47;3.67;;;10.70;99.90;;;;;;5036036;28;20193;-59
2023/12/11 06:16:35;;;;;;;38.30;4.93;;;10.70;99.90;;;;;;5031863;28;20205;-58
2023/12/11 06:19:03;;;;;;;22.73;4.60;;;10.80;99.90;;;;;;5038711;28;20227;-59
2023/12/11 06:21:32;;;;;;;28.27;4.67;;;10.80;99.90;;;;;;5038218;28;20582;-59
2023/12/11 06:24:00;;;;;;;29.23;4.83;;;10.80;99.90;;;;;;5032137;28;20233;-59
2023/12/11 06:26:30;;;;;;;33.00;4.93;;;10.80;99.90;;;;;;5025694;28;20225;-54
2023/12/11 06:29:00;;;;;;;24.77;4.53;;;10.80;99.90;;;;;;5033060;28;20304;-55
2023/12/11 06:31:31;;;;;;;31.37;4.63;;;10.80;99.90;;;;;;5032517;28;20651;-54
2023/12/11 06:33:59;;;;;;;18.10;4.23;;;10.70;99.90;;;;;;5036134;28;20308;-56
2023/12/11 06:36:28;;;;;;;29.13;4.97;;;10.80;99.90;;;;;;5028839;28;20335;-55
2023/12/11 06:38:57;;;;;;;26.13;4.00;;;10.70;99.90;;;;;;5033597;28;20216;-56
2023/12/11 06:41:25;;;;;;;26.70;4.40;;;10.80;99.90;;;;;;5039612;28;20613;-55
2023/12/11 06:43:57;;;;;;;21.07;4.37;;;10.70;99.90;;;;;;5030232;28;20280;-56
2023/12/11 06:46:28;;;;;;;20.77;4.60;;;10.70;99.90;;;;;;5025701;28;20233;-56
2023/12/11 06:48:59;;;;;;;25.07;3.83;;;10.70;99.90;;;;;;5027766;28;20213;-56
2023/12/11 06:51:29;;;;;;;31.30;4.83;;;10.70;99.90;;;;;;5036424;28;20266;-55
2023/12/11 06:53:59;;;;;;;26.00;4.13;;;10.80;99.90;;;;;;5033459;28;20225;-56
2023/12/11 06:56:30;;;;;;;30.70;4.27;;;10.80;99.90;;;;;;5028339;28;20244;-56
2023/12/11 06:59:00;;;;;;;29.77;4.27;;;10.80;99.90;;;;;;5033570;28;20201;-56
2023/12/11 07:01:29;;;;;;;18.10;4.00;;;10.80;99.90;;;;;;5032184;28;20255;-56
2023/12/11 07:03:59;;;;;;;25.57;4.03;;;10.80;99.90;;;;;;5028367;28;20413;-55
2023/12/11 07:06:28;;;;;;;32.17;4.07;;;10.80;99.90;;;;;;5028299;28;20814;-55
2023/12/11 07:08:57;;;;;;;29.93;3.73;;;10.80;99.90;;;;;;5029996;28;20244;-57
2023/12/11 07:11:25;;;;;;;21.10;3.50;;;10.90;99.90;;;;;;5031273;28;20283;-55
2023/12/11 07:13:54;;;;;;;17.70;3.93;;;10.90;99.90;;;;;;5038643;28;20201;-55
2023/12/11 07:16:23;;;;;;;17.73;3.67;;;10.90;99.90;;;;;;5033633;28;20263;-53
2023/12/11 07:18:52;;;;;;;20.83;3.93;;;10.90;99.90;;;;;;5029803;28;20230;-51
2023/12/11 07:21:23;;;;;;;14.83;3.60;;;10.90;99.90;;;;;;5022044;28;20620;-56
2023/12/11 07:23:51;;;;;;;17.10;3.37;;;10.90;99.90;;;;;;5033697;28;20225;-56
2023/12/11 07:26:20;;;;;;;18.13;3.40;;;10.90;99.90;;;;;;5028827;28;20308;-54
2023/12/11 07:28:48;;;;;;;24.67;4.03;;;10.80;99.90;;;;;;5034446;28;20235;-56
2023/12/11 07:31:17;;;;;;;17.37;3.93;;;10.80;99.90;;;;;;5032908;28;21112;-57
2023/12/11 07:33:45;;;;;;;15.17;3.47;;;10.80;99.90;;;;;;5037184;28;20273;-54
2023/12/11 07:36:15;;;;;;;14.33;3.67;;;10.80;99.90;;;;;;5030600;28;20572;-55
2023/12/11 07:38:44;;;;;;;17.83;3.63;;;10.90;99.90;;;;;;5030189;28;20221;-55
2023/12/11 07:41:13;;;;;;;19.03;3.80;;;10.80;99.90;;;;;;5029098;28;20225;-55
2023/12/11 07:43:41;;;;;;;16.10;2.87;;;10.80;99.90;;;;;;5027348;28;20614;-56
2023/12/11 07:46:16;;;;;;;20.70;3.23;;;10.80;99.90;;;;;;5022483;28;20225;-55
2023/12/11 07:48:45;;;;;;;14.13;3.60;;;10.80;99.90;;;;;;5031162;28;20232;-54
2023/12/11 07:51:20;;;;;;;12.87;3.27;;;10.80;99.90;;;;;;5022864;28;20220;-54
2023/12/11 07:53:50;;;;;;;18.67;3.13;;;10.90;99.90;;;;;;5029899;28;20232;-53
2023/12/11 07:56:22;;;;;;;15.53;3.00;;;10.80;99.90;;;;;;5027266;28;20224;-54
2023/12/11 07:58:50;;;;;;;15.80;3.43;;;10.80;99.90;;;;;;5025893;28;20215;-52
2023/12/11 08:01:19;;;;;;;14.17;2.87;;;10.80;99.90;;;;;;5028243;28;20229;-56
2023/12/11 08:03:48;;;;;;;16.60;3.67;;;10.80;99.90;;;;;;5024179;28;20295;-55
2023/12/11 08:06:17;;;;;;;11.07;3.27;;;10.80;99.90;;;;;;5023128;28;20225;-55
2023/12/11 08:08:45;;;;;;;16.77;3.47;;;10.80;99.90;;;;;;5031553;28;20217;-56
2023/12/11 08:11:20;;;;;;;14.47;2.90;;;10.80;99.90;;;;;;5024072;28;20217;-55
2023/12/11 08:13:49;;;;;;;12.90;3.10;;;10.80;99.90;;;;;;5036330;28;20248;-56
2023/12/11 08:16:18;;;;;;;13.27;3.30;;;10.80;99.90;;;;;;5055889;28;20575;-56
2023/12/11 08:18:48;;;;;;;21.03;4.27;;;10.80;99.90;;;;;;5050572;28;20311;-56
2023/12/11 08:21:17;;;;;;;19.73;3.43;;;10.80;99.90;;;;;;5046090;28;20294;-55
2023/12/11 08:23:47;;;;;;;16.17;3.00;;;10.90;99.90;;;;;;5044649;28;20682;-56
2023/12/11 08:26:18;;;;;;;13.60;3.30;;;10.90;99.90;;;;;;5032812;28;20217;-56
2023/12/11 08:28:48;;;;;;;12.03;3.03;;;10.90;99.90;;;;;;5031196;28;20220;-54
2023/12/11 08:31:16;;;;;;;21.77;3.47;;;10.90;99.90;;;;;;5055061;28;20212;-56
2023/12/11 08:33:45;;;;;;;17.37;3.60;;;10.90;99.90;;;;;;5055409;28;20220;-56
2023/12/11 08:36:13;;;;;;;19.83;3.20;;;10.90;99.90;;;;;;5054735;28;20226;-55
2023/12/11 08:38:42;;;;;;;11.93;2.80;;;10.90;99.90;;;;;;5047816;28;20221;-56
2023/12/11 08:41:10;;;;;;;16.80;2.97;;;10.90;99.90;;;;;;5039766;28;20193;-56
2023/12/11 08:43:40;;;;;;;10.57;2.93;;;10.90;99.90;;;;;;5055618;28;20195;-56
2023/12/11 08:46:08;;;;;;;13.87;2.63;;;10.90;99.90;;;;;;5053738;28;20221;-56
2023/12/11 08:48:37;;;;;;;16.10;2.70;;;10.90;99.90;;;;;;5061424;28;20339;-56
2023/12/11 08:51:06;;;;;;;17.90;3.40;;;10.90;99.90;;;;;;5054013;28;20221;-56
2023/12/11 08:53:34;;;;;;;14.17;3.07;;;10.90;99.90;;;;;;5054822;28;20319;-53
2023/12/11 08:56:02;;;;;;;16.57;2.63;;;11.00;99.90;;;;;;5051162;28;20547;-56
2023/12/11 08:58:30;;;;;;;10.57;3.03;;;11.00;99.90;;;;;;5051218;28;20251;-54
2023/12/11 09:01:00;;;;;;;10.57;2.60;;;11.00;99.90;;;;;;5058472;28;20223;-57
2023/12/11 09:03:29;;;;;;;10.40;2.90;;;11.00;99.90;;;;;;5059178;28;20220;-56
2023/12/11 09:05:57;;;;;;;10.83;2.30;;;11.00;99.90;;;;;;5037083;28;20248;-57
2023/12/11 09:08:26;;;;;;;12.20;3.00;;;11.00;99.90;;;;;;5037864;28;20573;-54
2023/12/11 09:11:14;;;;;;;8.97;2.57;;;11.10;99.90;;;;;;5056841;28;20207;-54
2023/12/11 09:13:43;;;;;;;13.17;2.67;;;11.00;99.90;;;;;;5060259;28;20246;-55
2023/12/11 09:16:13;;;;;;;15.13;2.73;;;11.00;99.90;;;;;;5050702;28;20315;-56
2023/12/11 09:18:41;;;;;;;17.83;3.80;;;11.00;99.90;;;;;;5062256;28;20223;-53
2023/12/11 09:21:10;;;;;;;12.70;2.93;;;11.00;99.90;;;;;;5055840;28;20227;-55
2023/12/11 09:23:38;;;;;;;11.80;2.67;;;11.00;99.90;;;;;;5057173;28;20224;-56
2023/12/11 09:26:07;;;;;;;14.80;3.17;;;11.00;99.90;;;;;;5054109;28;20193;-57
2023/12/11 09:28:35;;;;;;;14.10;2.90;;;11.00;99.90;;;;;;5054017;28;20208;-54
2023/12/11 09:31:19;;;;;;;13.37;2.97;;;11.10;99.90;;;;;;5052917;28;20228;-55
2023/12/11 09:33:48;;;;;;;13.30;3.07;;;11.00;99.90;;;;;;5030315;28;20653;-55
2023/12/11 09:36:17;;;;;;;21.83;3.70;;;11.10;99.90;;;;;;5030070;28;20259;-56
2023/12/11 09:38:45;;;;;;;16.90;3.40;;;11.10;99.90;;;;;;5032624;28;20217;-56
2023/12/11 09:41:13;;;;;;;15.77;3.00;;;11.10;99.90;;;;;;5033652;28;20687;-56
2023/12/11 09:43:42;;;;;;;19.33;3.23;;;11.10;99.90;;;;;;5042974;28;20539;-56
2023/12/11 09:46:16;;;;;;;17.10;3.00;;;11.10;99.90;;;;;;5055146;28;20212;-57
2023/12/11 09:48:47;;;;;;;11.47;3.00;;;11.10;99.90;;;;;;5043141;28;20229;-56
2023/12/11 09:51:17;;;;;;;18.50;3.67;;;11.10;99.90;;;;;;5034000;28;20237;-56
2023/12/11 09:53:46;;;;;;;15.70;3.47;;;11.10;99.90;;;;;;5039742;28;20254;-56
2023/12/11 09:56:16;;;;;;;13.00;2.97;;;11.10;99.90;;;;;;5029809;28;20691;-57
2023/12/11 09:58:44;;;;;;;14.23;3.03;;;11.10;99.90;;;;;;5038660;28;20195;-56
2023/12/11 10:01:14;;;;;;;13.63;3.57;;;11.10;99.90;;;;;;5036788;28;20233;-56
2023/12/11 10:03:42;;;;;;;10.47;2.73;;;11.10;99.90;;;;;;5029577;28;20238;-53
2023/12/11 10:06:12;;;;;;;25.40;3.77;;;11.10;99.90;;;;;;5026826;28;20232;-56
2023/12/11 10:08:43;;;;;;;21.13;3.63;;;11.10;99.90;;;;;;5030748;28;20248;-56
2023/12/11 10:11:13;;;;;;;13.20;3.10;;;11.10;99.90;;;;;;5031316;28;20236;-56
2023/12/11 10:13:42;;;;;;;12.40;2.90;;;11.10;99.90;;;;;;5033838;28;20186;-56
2023/12/11 10:16:28;;;;;;;14.63;3.03;;;11.10;99.90;;;;;;5030311;28;20288;-56
2023/12/11 10:18:56;;;;;;;12.33;2.90;;;11.20;99.90;;;;;;5024885;28;20250;-56
2023/12/11 10:21:27;;;;;;;27.20;4.43;;;11.20;99.90;;;;;;5027021;28;20229;-56
2023/12/11 10:24:03;;;;;;;12.43;3.23;;;11.10;99.90;;;;;;5029375;28;20220;-55
2023/12/11 10:26:33;;;;;;;13.37;3.03;;;11.20;99.90;;;;;;5032154;28;20278;-56
2023/12/11 10:29:19;;;;;;;14.43;3.30;;;11.20;99.90;;;;;;5039559;28;20225;-56
2023/12/11 10:31:48;;;;;;;16.60;3.20;;;11.30;99.90;;;;;;5034892;28;20627;-56
2023/12/11 10:34:16;;;;;;;16.03;2.80;;;11.30;99.90;;;;;;5028544;28;20221;-56
2023/12/11 10:36:50;;;;;;;13.50;2.70;;;11.30;99.90;;;;;;5029074;28;20220;-56
2023/12/11 10:39:19;;;;;;;15.23;2.87;;;11.30;99.90;;;;;;5037490;28;20212;-57
2023/12/11 10:41:49;;;;;;;15.40;2.97;;;11.30;99.90;;;;;;5032678;28;20225;-56
2023/12/11 10:44:27;;;;;;;14.63;3.00;;;11.30;99.90;;;;;;5032524;28;20236;-56
2023/12/11 10:46:59;;;;;;;9.87;2.83;;;11.30;99.90;;;;;;5031701;28;20261;-56
2023/12/11 10:49:27;;;;;;;11.13;3.37;;;11.30;99.90;;;;;;5035793;28;20194;-55
2023/12/11 10:51:56;;;;;;;17.43;3.37;;;11.40;99.90;;;;;;5032321;28;20222;-56
2023/12/11 10:54:24;;;;;;;21.07;4.50;;;11.40;99.90;;;;;;5033082;28;20253;-57
2023/12/11 10:56:54;;;;;;;23.13;3.77;;;11.50;99.90;;;;;;5034344;28;20221;-54
2023/12/11 10:59:23;;;;;;;14.37;3.23;;;11.50;99.90;;;;;;5034730;28;20225;-57
2023/12/11 11:01:52;;;;;;;11.17;2.90;;;11.40;99.90;;;;;;5033346;28;20694;-56
2023/12/11 11:04:21;;;;;;;16.37;3.27;;;11.40;99.90;;;;;;5032720;28;20284;-55
2023/12/11 11:06:55;;;;;;;17.83;3.13;;;11.40;99.90;;;;;;5046376;28;20220;-56
2023/12/11 11:09:33;;;;;;;14.50;3.00;;;11.30;99.90;;;;;;5042643;28;20225;-57
2023/12/11 11:12:09;;;;;;;14.50;2.77;;;11.30;99.90;;;;;;5036609;28;20223;-56
2023/12/11 11:14:48;;;;;;;13.63;2.90;;;11.30;99.90;;;;;;5030796;28;20228;-55
2023/12/11 11:17:17;;;;;;;15.87;3.20;;;11.30;99.90;;;;;;5025643;28;20225;-57
2023/12/11 11:20:14;;;;;;;11.70;2.80;;;11.40;99.90;;;;;;5030103;28;20189;-56
2023/12/11 11:22:42;;;;;;;14.97;3.17;;;11.40;99.90;;;;;;5009411;28;20722;-54
2023/12/11 11:25:36;;;;;;;14.00;3.37;;;11.50;99.90;;;;;;5033003;28;20595;-56
2023/12/11 11:28:05;;;;;;;14.83;3.30;;;11.60;99.90;;;;;;5032737;28;20224;-54
2023/12/11 11:30:51;;;;;;;17.77;2.80;;;11.60;99.90;;;;;;5060518;28;20216;-56
2023/12/11 11:33:23;;;;;;;15.27;3.17;;;11.60;99.90;;;;;;5065161;28;20221;-58
2023/12/11 11:35:58;;;;;;;12.50;3.43;;;11.70;99.90;;;;;;5034629;28;21098;-56
2023/12/11 11:38:53;;;;;;;14.27;3.10;;;11.70;99.90;;;;;;5032091;28;20221;-54
2023/12/11 11:41:32;;;;;;;9.10;2.73;;;11.70;99.90;;;;;;5036724;28;20564;-56
2023/12/11 11:44:06;;;;;;;15.43;3.10;;;11.70;99.90;;;;;;5033027;28;20581;-54
2023/12/11 11:46:54;;;;;;;12.57;2.57;;;11.70;99.90;;;;;;5038797;28;20225;-56
2023/12/11 11:49:27;;;;;;;15.70;3.27;;;11.70;99.90;;;;;;5047236;28;20379;-54
2023/12/11 11:52:00;;;;;;;18.40;3.10;;;11.70;99.90;;;;;;5051008;28;20240;-55
2023/12/11 11:54:32;;;;;;;13.47;3.03;;;11.70;99.90;;;;;;5045383;28;20776;-54
2023/12/11 11:57:12;;;;;;;16.50;3.80;;;11.80;99.90;;;;;;5036801;28;20212;-54
2023/12/11 11:59:48;;;;;;;16.50;2.80;;;11.80;99.90;;;;;;5046779;28;20235;-54
2023/12/11 12:02:27;;;;;;;8.13;2.50;;;11.80;99.90;;;;;;5048030;28;20223;-55
2023/12/11 12:05:06;;;;;;;14.07;2.70;;;11.70;99.90;;;;;;5049560;28;20196;-56
2023/12/11 12:07:43;;;;;;;15.67;3.13;;;11.70;99.90;;;;;;5068027;28;20201;-55
2023/12/11 12:10:17;;;;;;;12.10;2.60;;;11.70;99.90;;;;;;5051501;28;20627;-55
2023/12/11 12:12:57;;;;;;;12.77;3.07;;;11.70;99.90;;;;;;5050060;28;20221;-56
2023/12/11 12:15:30;;;;;;;12.80;2.93;;;11.70;99.90;;;;;;5043713;28;20258;-55
2023/12/11 12:18:09;;;;;;;15.27;3.40;;;11.70;99.90;;;;;;5050028;28;20270;-56
2023/12/11 12:20:41;;;;;;;19.00;3.40;;;11.70;99.90;;;;;;5051568;28;20224;-55
2023/12/11 12:23:10;;;;;;;11.80;2.93;;;11.70;99.90;;;;;;5042472;28;20228;-54
2023/12/11 12:25:39;;;;;;;16.37;2.90;;;11.70;99.90;;;;;;5051715;28;20205;-57
2023/12/11 12:28:11;;;;;;;10.57;3.67;;;11.70;99.90;;;;;;5054428;28;20220;-55
2023/12/11 12:30:39;;;;;;;17.13;3.97;;;11.70;99.90;;;;;;5044875;28;20219;-56
2023/12/11 12:33:10;;;;;;;15.30;2.80;;;11.70;99.90;;;;;;5050024;28;20212;-55
2023/12/11 12:35:39;;;;;;;17.13;2.60;;;11.80;99.90;;;;;;5044907;28;20291;-56
2023/12/11 12:38:27;;;;;;;13.23;3.23;;;11.70;99.90;;;;;;5043170;28;20533;-55
2023/12/11 12:40:55;;;;;;;13.33;2.93;;;11.80;99.90;;;;;;5047919;28;20554;-56
2023/12/11 12:43:26;;;;;;;12.53;3.00;;;11.80;99.90;;;;;;5048103;28;20231;-55
2023/12/11 12:46:00;;;;;;;10.03;2.80;;;11.80;99.90;;;;;;5050330;28;20213;-55
2023/12/11 12:48:28;;;;;;;9.50;2.83;;;11.80;99.90;;;;;;5040480;28;20216;-56
2023/12/11 12:51:06;;;;;;;11.63;3.20;;;11.80;99.90;;;;;;5049439;28;20563;-56
2023/12/11 12:53:34;;;;;;;10.03;2.70;;;11.80;99.90;;;;;;5047921;28;20252;-56